Time;durP1;ratioP1;P1;durP2;ratioP2;P2;SDS_P1;SDS_P2;PMS_P1;PMS_P2;Temp;Humidity;BMP_temperature;BMP_pressure;BME280_temperature;BME280_humidity;BME280_pressure;Samples;Min_cycle;Max_cycle;Signal;HPM_P1;HPM_P2
2021/01/07 00:00:05;;;;;;;63.35;28.30;;;;;;;1.80;89.77;100621.53;1809983;78;22014;-49
2021/01/07 00:02:35;;;;;;;63.92;28.87;;;;;;;1.76;89.88;100620.35;1800870;78;22170;-49
2021/01/07 00:05:06;;;;;;;59.42;28.98;;;;;;;1.71;90.08;100620.16;1815362;78;21154;-49
2021/01/07 00:07:34;;;;;;;63.17;26.65;;;;;;;1.66;90.25;100622.11;1835157;77;21726;-48
2021/01/07 00:10:04;;;;;;;60.58;25.20;;;;;;;1.66;90.46;100624.25;1822403;77;22110;-48
2021/01/07 00:12:32;;;;;;;48.50;23.02;;;;;;;1.68;90.61;100629.42;1823837;77;21133;-49
2021/01/07 00:15:00;;;;;;;49.63;23.77;;;;;;;1.67;90.58;100627.73;1801546;78;21147;-49
2021/01/07 00:17:27;;;;;;;49.33;22.15;;;;;;;1.68;90.70;100633.34;1796544;78;21107;-49
2021/01/07 00:19:55;;;;;;;55.25;24.57;;;;;;;1.68;90.74;100637.25;1798082;78;21411;-48
2021/01/07 00:22:22;;;;;;;55.28;23.83;;;;;;;1.69;90.70;100653.30;1813484;78;21144;-50
2021/01/07 00:24:50;;;;;;;48.58;23.42;;;;;;;1.68;90.65;100656.36;1788553;78;21024;-48
2021/01/07 00:27:18;;;;;;;56.45;24.07;;;;;;;1.66;90.63;100637.77;1786972;79;21118;-49
2021/01/07 00:29:46;;;;;;;46.60;21.48;;;;;;;1.64;90.74;100629.16;1786941;79;21105;-49
2021/01/07 00:32:15;;;;;;;50.58;24.70;;;;;;;1.63;90.86;100625.69;1828541;77;21190;-48
2021/01/07 00:34:43;;;;;;;55.50;24.20;;;;;;;1.60;90.97;100637.11;1792634;78;21052;-48
2021/01/07 00:37:11;;;;;;;45.10;20.57;;;;;;;1.58;91.14;100629.80;1815780;78;21050;-48
2021/01/07 00:39:38;;;;;;;37.85;19.37;;;;;;;1.57;91.28;100622.88;1816070;78;21890;-49
2021/01/07 00:42:06;;;;;;;35.10;18.25;;;;;;;1.56;91.36;100629.02;1765790;78;21105;-49
2021/01/07 00:44:33;;;;;;;38.45;20.02;;;;;;;1.56;91.53;100629.48;1809828;78;21372;-50
2021/01/07 00:47:01;;;;;;;40.80;21.87;;;;;;;1.56;91.60;100626.87;1805025;78;21130;-49
2021/01/07 00:49:29;;;;;;;46.33;22.37;;;;;;;1.56;91.61;100634.70;1788215;78;21113;-48
2021/01/07 00:51:56;;;;;;;55.63;27.90;;;;;;;1.52;91.72;100637.88;1809110;78;21107;-49
2021/01/07 00:54:24;;;;;;;60.65;24.98;;;;;;;1.52;91.85;100634.43;1811563;78;21119;-49
2021/01/07 00:56:52;;;;;;;56.55;25.50;;;;;;;1.52;91.96;100634.43;1803455;78;22217;-49
2021/01/07 00:59:22;;;;;;;53.08;22.37;;;;;;;1.47;91.98;100622.86;1807748;78;21168;-49
2021/01/07 01:01:50;;;;;;;46.85;19.62;;;;;;;1.44;92.16;100617.77;1804798;78;21148;-48
2021/01/07 01:04:18;;;;;;;45.55;18.05;;;;;;;1.42;92.30;100620.45;1796509;79;21137;-48
2021/01/07 01:06:46;;;;;;;48.80;19.27;;;;;;;1.40;92.37;100613.14;1796341;78;21145;-49
2021/01/07 01:09:14;;;;;;;49.80;19.75;;;;;;;1.39;92.41;100620.58;1796269;78;21171;-49
2021/01/07 01:11:45;;;;;;;37.88;15.75;;;;;;;1.39;92.47;100618.41;1796314;78;21148;-48
2021/01/07 01:14:18;;;;;;;49.30;24.47;;;;;;;1.41;92.54;100615.28;1796591;78;21171;-49
2021/01/07 01:16:50;;;;;;;42.78;15.80;;;;;;;1.43;92.56;100618.68;1796360;78;21129;-49
2021/01/07 01:19:18;;;;;;;42.23;16.05;;;;;;;1.39;92.54;100621.02;1796591;79;21117;-49
2021/01/07 01:21:51;;;;;;;46.50;18.45;;;;;;;1.38;92.64;100611.49;1819570;78;22041;-49
2021/01/07 01:24:20;;;;;;;36.35;16.40;;;;;;;1.34;92.77;100613.39;1796634;79;20982;-50
2021/01/07 01:26:55;;;;;;;50.50;20.95;;;;;;;1.34;92.88;100604.27;1804425;78;21141;-49
2021/01/07 01:29:23;;;;;;;48.02;21.00;;;;;;;1.37;93.04;100599.36;1809278;78;21165;-50
2021/01/07 01:31:52;;;;;;;53.38;19.98;;;;;;;1.41;93.14;100591.80;1796416;78;21150;-49
2021/01/07 01:34:20;;;;;;;58.55;21.27;;;;;;;1.42;93.22;100585.67;1796437;78;21388;-49
2021/01/07 01:36:49;;;;;;;47.67;19.92;;;;;;;1.45;93.26;100577.73;1796386;78;21131;-49
2021/01/07 01:39:17;;;;;;;62.45;23.92;;;;;;;1.44;93.33;100570.81;1796482;78;21117;-49
2021/01/07 01:41:48;;;;;;;57.03;23.27;;;;;;;1.44;93.41;100567.77;1822623;78;21128;-49
2021/01/07 01:44:17;;;;;;;61.05;21.85;;;;;;;1.48;93.49;100568.47;1815464;78;21120;-49
2021/01/07 01:46:44;;;;;;;60.03;23.25;;;;;;;1.51;93.58;100563.13;1795132;78;21614;-49
2021/01/07 01:49:12;;;;;;;53.45;22.10;;;;;;;1.49;93.48;100564.95;1771717;78;20992;-49
2021/01/07 01:51:40;;;;;;;54.70;23.25;;;;;;;1.51;93.58;100563.59;1787207;79;21569;-49
2021/01/07 01:54:09;;;;;;;52.43;22.48;;;;;;;1.54;93.69;100559.09;1787166;78;21122;-49
2021/01/07 01:56:36;;;;;;;70.42;28.00;;;;;;;1.54;93.62;100555.17;1836789;77;21593;-49
2021/01/07 01:59:04;;;;;;;44.98;20.43;;;;;;;1.55;93.63;100549.52;1841512;77;21379;-48
2021/01/07 02:01:32;;;;;;;48.10;21.82;;;;;;;1.57;93.73;100558.95;1815886;77;21138;-48
2021/01/07 02:03:59;;;;;;;41.58;20.45;;;;;;;1.58;93.70;100554.13;1839645;77;22176;-49
2021/01/07 02:06:27;;;;;;;39.00;19.00;;;;;;;1.59;93.68;100552.39;1815911;78;21189;-49
2021/01/07 02:08:55;;;;;;;45.98;21.40;;;;;;;1.60;93.71;100541.87;1840220;77;21097;-49
2021/01/07 02:11:23;;;;;;;42.75;19.80;;;;;;;1.59;93.60;100536.26;1816420;78;22511;-49
2021/01/07 02:13:50;;;;;;;41.53;19.30;;;;;;;1.55;93.47;100532.08;1832881;77;21014;-49
2021/01/07 02:16:21;;;;;;;38.67;18.98;;;;;;;1.55;93.60;100533.39;1786863;78;21126;-48
2021/01/07 02:18:52;;;;;;;32.93;17.40;;;;;;;1.57;93.73;100525.04;1799440;78;28301;-48
2021/01/07 02:21:20;;;;;;;39.03;20.27;;;;;;;1.62;93.74;100532.22;1790541;78;21112;-49
2021/01/07 02:23:53;;;;;;;33.15;16.87;;;;;;;1.60;93.49;100526.21;1815954;78;21870;-49
2021/01/07 02:26:22;;;;;;;33.67;18.20;;;;;;;1.59;93.36;100528.91;1794540;78;21010;-49
2021/01/07 02:28:50;;;;;;;30.20;16.42;;;;;;;1.54;93.38;100505.59;1815858;78;21178;-49
2021/01/07 02:31:19;;;;;;;27.55;16.27;;;;;;;1.54;93.39;100496.95;1787324;78;21584;-49
2021/01/07 02:33:47;;;;;;;30.77;16.57;;;;;;;1.53;93.38;100494.77;1815850;78;21113;-49
2021/01/07 02:36:15;;;;;;;28.25;16.23;;;;;;;1.53;93.40;100492.16;1819563;78;21198;-49
2021/01/07 02:38:42;;;;;;;34.40;18.25;;;;;;;1.53;93.44;100484.81;1793041;78;21472;-48
2021/01/07 02:41:10;;;;;;;26.20;15.25;;;;;;;1.56;93.45;100486.81;1801287;78;21139;-48
2021/01/07 02:43:38;;;;;;;26.82;14.30;;;;;;;1.52;93.25;100479.20;1815909;77;21125;-48
2021/01/07 02:46:06;;;;;;;30.65;13.95;;;;;;;1.45;93.23;100478.16;1787355;79;21938;-49
2021/01/07 02:48:35;;;;;;;24.20;13.32;;;;;;;1.39;93.32;100474.51;1815750;78;21423;-48
2021/01/07 02:51:02;;;;;;;28.57;14.38;;;;;;;1.36;93.36;100485.52;1787141;78;21921;-49
2021/01/07 02:53:30;;;;;;;24.18;13.45;;;;;;;1.32;93.42;100476.51;1815721;78;21002;-49
2021/01/07 02:55:58;;;;;;;23.87;14.47;;;;;;;1.33;93.48;100469.55;1787222;79;21124;-49
2021/01/07 02:58:27;;;;;;;27.30;14.75;;;;;;;1.32;93.42;100466.08;1815607;78;21109;-49
2021/01/07 03:00:55;;;;;;;29.80;15.80;;;;;;;1.33;93.43;100461.25;1796575;78;21160;-49
2021/01/07 03:03:23;;;;;;;25.65;15.08;;;;;;;1.36;93.47;100456.81;1815937;78;22068;-48
2021/01/07 03:05:51;;;;;;;29.25;15.83;;;;;;;1.39;93.43;100459.30;1812435;78;21135;-49
2021/01/07 03:08:19;;;;;;;30.60;16.52;;;;;;;1.42;93.42;100456.12;1792242;78;21098;-49
2021/01/07 03:10:46;;;;;;;30.43;16.57;;;;;;;1.46;93.44;100454.21;1815994;78;22111;-48
2021/01/07 03:13:14;;;;;;;41.68;20.25;;;;;;;1.49;93.44;100450.16;1801067;78;21189;-50
2021/01/07 03:15:42;;;;;;;39.92;20.60;;;;;;;1.50;93.28;100449.25;1805736;78;21018;-49
2021/01/07 03:18:09;;;;;;;37.00;20.40;;;;;;;1.43;93.27;100437.39;1792968;78;21785;-49
2021/01/07 03:20:37;;;;;;;35.45;17.85;;;;;;;1.39;93.42;100440.59;1803175;78;21113;-49
2021/01/07 03:23:05;;;;;;;31.85;16.93;;;;;;;1.37;93.58;100439.81;1815557;78;21141;-49
2021/01/07 03:25:33;;;;;;;33.13;17.60;;;;;;;1.37;93.76;100429.38;1787017;78;21425;-49
2021/01/07 03:28:01;;;;;;;31.05;17.45;;;;;;;1.39;93.71;100422.78;1815749;77;21130;-49
2021/01/07 03:30:29;;;;;;;39.15;21.45;;;;;;;1.35;93.68;100421.22;1815665;78;21018;-49
2021/01/07 03:32:57;;;;;;;37.13;18.42;;;;;;;1.35;93.79;100421.22;1815749;77;21121;-49
2021/01/07 03:35:25;;;;;;;33.28;17.62;;;;;;;1.35;93.80;100425.99;1839254;77;21111;-49
2021/01/07 03:37:52;;;;;;;35.80;19.05;;;;;;;1.36;93.82;100419.86;1816019;78;22765;-49
2021/01/07 03:40:21;;;;;;;35.08;18.92;;;;;;;1.39;93.85;100408.44;1815751;77;21463;-49
2021/01/07 03:42:48;;;;;;;45.95;19.92;;;;;;;1.40;93.82;100399.70;1815824;77;21985;-49
2021/01/07 03:45:16;;;;;;;40.70;21.35;;;;;;;1.41;93.69;100402.70;1839212;77;21105;-48
2021/01/07 03:47:43;;;;;;;43.30;22.55;;;;;;;1.35;93.62;100401.66;1816297;77;21121;-49
2021/01/07 03:50:11;;;;;;;43.28;22.55;;;;;;;1.35;93.74;100396.44;1816646;78;21393;-49
2021/01/07 03:52:39;;;;;;;39.98;21.07;;;;;;;1.32;93.75;100394.83;1828807;77;21011;-49
2021/01/07 03:55:09;;;;;;;34.70;19.35;;;;;;;1.32;93.84;100400.88;1782397;78;21040;-49
2021/01/07 03:57:36;;;;;;;38.10;20.12;;;;;;;1.32;93.92;100396.97;1787238;78;21569;-49
2021/01/07 04:00:05;;;;;;;39.38;19.82;;;;;;;1.36;93.94;100399.44;1836799;77;21109;-48
2021/01/07 04:02:33;;;;;;;40.00;21.80;;;;;;;1.37;93.87;100395.92;1810742;78;21191;-49
2021/01/07 04:05:02;;;;;;;41.65;22.73;;;;;;;1.38;93.85;100387.17;1787031;78;21144;-49
2021/01/07 04:07:29;;;;;;;43.00;21.27;;;;;;;1.36;93.80;100390.31;1815703;78;21151;-49
2021/01/07 04:09:57;;;;;;;45.17;22.32;;;;;;;1.33;93.79;100380.41;1787245;78;21028;-49
2021/01/07 04:12:25;;;;;;;46.20;23.90;;;;;;;1.30;93.81;100374.02;1816214;78;21097;-49
2021/01/07 04:14:55;;;;;;;53.35;23.62;;;;;;;1.29;93.94;100380.14;1815097;77;21186;-49
2021/01/07 04:17:23;;;;;;;40.88;21.20;;;;;;;1.31;94.02;100373.10;1834755;77;21137;-48
2021/01/07 04:19:51;;;;;;;43.83;22.05;;;;;;;1.31;94.01;100378.80;1784368;78;20990;-48
2021/01/07 04:22:18;;;;;;;44.45;21.48;;;;;;;1.28;93.97;100377.14;1802640;78;21145;-49
2021/01/07 04:24:46;;;;;;;43.35;22.10;;;;;;;1.27;94.07;100377.23;1816160;78;22004;-49
2021/01/07 04:27:14;;;;;;;44.15;23.02;;;;;;;1.27;94.12;100375.45;1815628;77;21399;-49
2021/01/07 04:29:44;;;;;;;43.55;22.05;;;;;;;1.29;94.07;100372.32;1787372;78;21172;-49
2021/01/07 04:32:12;;;;;;;38.20;20.68;;;;;;;1.27;94.00;100371.55;1787871;79;21013;-49
2021/01/07 04:34:40;;;;;;;41.30;20.68;;;;;;;1.23;93.99;100383.02;1815588;77;21117;-48
2021/01/07 04:37:08;;;;;;;40.05;21.30;;;;;;;1.18;94.10;100384.53;1787101;78;21548;-48
2021/01/07 04:39:36;;;;;;;43.78;22.37;;;;;;;1.16;94.30;100380.28;1787155;78;21200;-49
2021/01/07 04:42:04;;;;;;;38.92;21.45;;;;;;;1.16;94.41;100376.37;1839330;77;21146;-49
2021/01/07 04:44:31;;;;;;;42.78;22.80;;;;;;;1.18;94.45;100373.24;1815962;78;21616;-49
2021/01/07 04:46:59;;;;;;;43.40;23.50;;;;;;;1.22;94.54;100377.41;1815777;78;21105;-49
2021/01/07 04:49:27;;;;;;;42.40;22.25;;;;;;;1.26;94.49;100373.77;1815707;78;21105;-49
2021/01/07 04:51:55;;;;;;;46.10;20.70;;;;;;;1.28;94.43;100375.84;1814979;77;21186;-50
2021/01/07 04:54:23;;;;;;;43.83;22.58;;;;;;;1.29;94.35;100378.84;1815977;78;21132;-49
2021/01/07 04:56:51;;;;;;;44.30;23.77;;;;;;;1.30;94.31;100376.63;1815624;78;21130;-49
2021/01/07 04:59:19;;;;;;;47.55;25.05;;;;;;;1.31;94.29;100367.89;1815728;78;21104;-49
2021/01/07 05:01:46;;;;;;;41.80;21.95;;;;;;;1.32;94.23;100365.67;1839697;77;21589;-49
2021/01/07 05:04:17;;;;;;;44.33;22.85;;;;;;;1.35;94.23;100362.09;1791585;78;22175;-49
2021/01/07 05:06:45;;;;;;;43.65;22.95;;;;;;;1.37;94.05;100365.48;1800321;78;21605;-48
2021/01/07 05:09:13;;;;;;;43.78;23.22;;;;;;;1.34;93.99;100365.62;1815837;78;21140;-49
2021/01/07 05:11:41;;;;;;;40.08;21.73;;;;;;;1.31;94.00;100360.06;1815754;78;21112;-49
2021/01/07 05:14:10;;;;;;;36.90;19.90;;;;;;;1.29;94.15;100355.37;1815728;78;21133;-49
2021/01/07 05:16:38;;;;;;;40.50;21.70;;;;;;;1.31;94.25;100348.33;1825063;77;22705;-50
2021/01/07 05:19:07;;;;;;;37.75;20.00;;;;;;;1.34;94.28;100353.88;1781671;78;20996;-50
2021/01/07 05:21:36;;;;;;;37.53;20.15;;;;;;;1.35;94.30;100348.19;1802136;78;21183;-48
2021/01/07 05:24:04;;;;;;;40.98;21.35;;;;;;;1.36;94.31;100352.49;1805524;78;22102;-48
2021/01/07 05:26:32;;;;;;;37.08;20.17;;;;;;;1.36;94.39;100344.67;1788053;78;22243;-48
2021/01/07 05:29:00;;;;;;;36.68;19.35;;;;;;;1.36;94.41;100335.54;1799313;77;21187;-48
2021/01/07 05:31:28;;;;;;;36.00;19.75;;;;;;;1.38;94.53;100337.18;1819629;78;21014;-49
2021/01/07 05:33:55;;;;;;;36.88;18.85;;;;;;;1.38;94.52;100327.19;1819520;78;22193;-48
2021/01/07 05:36:26;;;;;;;34.48;19.75;;;;;;;1.35;94.66;100321.67;1819273;77;21906;-49
2021/01/07 05:39:03;;;;;;;32.98;18.45;;;;;;;1.33;94.78;100324.33;1787566;78;21117;-49
2021/01/07 05:41:31;;;;;;;37.25;18.92;;;;;;;1.33;94.99;100320.89;1803341;78;21279;-49
2021/01/07 05:44:00;;;;;;;30.43;14.98;;;;;;;1.36;95.20;100325.11;1779636;78;21113;-50
2021/01/07 05:46:32;;;;;;;30.75;16.55;;;;;;;1.35;95.35;100319.50;1797729;78;21140;-49
2021/01/07 05:49:00;;;;;;;36.85;16.10;;;;;;;1.33;95.49;100309.16;1799751;78;21121;-49
2021/01/07 05:51:29;;;;;;;30.40;15.93;;;;;;;1.33;95.63;100313.89;1800376;78;21488;-49
2021/01/07 05:53:59;;;;;;;34.58;15.80;;;;;;;1.36;95.71;100315.98;1814814;78;21248;-49
2021/01/07 05:56:27;;;;;;;32.17;16.52;;;;;;;1.38;95.83;100314.15;1799977;78;21138;-49
2021/01/07 05:58:55;;;;;;;34.60;17.52;;;;;;;1.39;95.88;100313.23;1795893;78;21120;-53
2021/01/07 06:01:23;;;;;;;28.40;14.85;;;;;;;1.38;95.93;100313.70;1797584;78;21141;-49
2021/01/07 06:03:52;;;;;;;28.60;15.28;;;;;;;1.39;95.97;100309.32;1800329;78;22150;-48
2021/01/07 06:06:22;;;;;;;24.40;14.93;;;;;;;1.40;96.00;100312.32;1795781;78;21214;-49
2021/01/07 06:08:54;;;;;;;29.57;15.90;;;;;;;1.39;96.03;100305.41;1800203;78;21509;-49
2021/01/07 06:11:24;;;;;;;28.75;16.52;;;;;;;1.38;96.12;100314.15;1814988;78;21146;-49
2021/01/07 06:13:53;;;;;;;28.40;15.20;;;;;;;1.37;96.20;100308.55;1798310;78;21128;-49
2021/01/07 06:16:22;;;;;;;36.70;16.90;;;;;;;1.40;96.30;100309.71;1796056;79;21140;-49
2021/01/07 06:18:49;;;;;;;33.83;17.05;;;;;;;1.41;96.36;100308.35;1796113;78;21561;-48
2021/01/07 06:21:17;;;;;;;40.52;18.45;;;;;;;1.43;96.41;100303.05;1795747;78;21172;-47
2021/01/07 06:23:47;;;;;;;47.95;24.05;;;;;;;1.44;96.51;100307.35;1795812;78;21129;-48
2021/01/07 06:26:24;;;;;;;55.65;24.00;;;;;;;1.45;96.57;100305.13;1796106;78;21579;-49
2021/01/07 06:28:59;;;;;;;49.30;21.20;;;;;;;1.49;96.60;100313.69;1795973;78;21145;-48
2021/01/07 06:31:35;;;;;;;57.15;24.85;;;;;;;1.50;96.62;100314.07;1797991;78;21156;-49
2021/01/07 06:34:04;;;;;;;62.78;25.82;;;;;;;1.50;96.69;100309.69;1802421;78;21089;-49
2021/01/07 06:36:43;;;;;;;71.47;24.05;;;;;;;1.49;96.72;100313.20;1786810;78;21000;-49
2021/01/07 06:39:12;;;;;;;69.17;23.10;;;;;;;1.49;96.78;100309.77;1789874;78;21100;-48
2021/01/07 06:41:51;;;;;;;88.20;29.92;;;;;;;1.49;96.86;100318.42;1790314;78;22084;-48
2021/01/07 06:44:19;;;;;;;84.25;31.27;;;;;;;1.47;96.95;100313.73;1816088;78;21950;-48
2021/01/07 06:46:48;;;;;;;87.22;31.93;;;;;;;1.46;97.03;100312.91;1760630;78;21155;-48
2021/01/07 06:49:26;;;;;;;97.53;34.48;;;;;;;1.51;97.13;100313.16;1787305;79;21575;-49
2021/01/07 06:52:03;;;;;;;93.05;32.60;;;;;;;1.53;97.20;100313.45;1818340;77;21153;-49
2021/01/07 06:54:32;;;;;;;78.52;27.30;;;;;;;1.57;97.22;100308.48;1816288;78;21211;-49
2021/01/07 06:57:03;;;;;;;76.02;28.12;;;;;;;1.56;97.17;100305.48;1813347;78;22203;-49
2021/01/07 06:59:30;;;;;;;72.23;27.30;;;;;;;1.57;97.20;100298.05;1788243;78;21156;-49
2021/01/07 07:01:59;;;;;;;72.55;26.65;;;;;;;1.57;97.20;100303.27;1760095;78;21133;-50
2021/01/07 07:04:32;;;;;;;69.50;26.40;;;;;;;1.58;97.23;100302.35;1791162;78;21466;-49
2021/01/07 07:07:10;;;;;;;69.50;24.90;;;;;;;1.58;97.29;100301.05;1796129;78;21105;-49
2021/01/07 07:09:40;;;;;;;73.87;24.90;;;;;;;1.57;97.35;100308.48;1797360;78;21293;-50
2021/01/07 07:12:08;;;;;;;61.05;22.98;;;;;;;1.55;97.39;100293.36;1803654;78;22280;-49
2021/01/07 07:14:37;;;;;;;72.27;26.75;;;;;;;1.53;97.52;100285.23;1801132;78;22123;-49
2021/01/07 07:17:07;;;;;;;57.98;24.35;;;;;;;1.52;97.59;100294.80;1787098;78;21101;-49
2021/01/07 07:19:37;;;;;;;52.95;22.70;;;;;;;1.54;97.68;100283.84;1792800;78;21617;-49
2021/01/07 07:22:05;;;;;;;46.25;20.88;;;;;;;1.55;97.75;100283.41;1821814;77;22121;-49
2021/01/07 07:24:42;;;;;;;48.23;17.87;;;;;;;1.54;97.85;100277.32;1792229;78;21161;-49
2021/01/07 07:27:11;;;;;;;48.52;20.32;;;;;;;1.55;97.98;100279.48;1793253;78;21002;-49
2021/01/07 07:29:43;;;;;;;51.15;22.62;;;;;;;1.53;98.05;100275.63;1803934;78;21117;-49
2021/01/07 07:32:27;;;;;;;46.92;22.13;;;;;;;1.54;98.14;100272.10;1796067;78;21114;-49
2021/01/07 07:34:55;;;;;;;42.58;19.85;;;;;;;1.54;98.22;100266.88;1791384;78;21319;-49
2021/01/07 07:37:26;;;;;;;50.90;21.48;;;;;;;1.57;98.28;100256.78;1797505;78;21125;-48
2021/01/07 07:40:01;;;;;;;46.67;20.53;;;;;;;1.57;98.29;100258.91;1808918;78;20982;-49
2021/01/07 07:42:29;;;;;;;44.65;19.05;;;;;;;1.59;98.30;100247.12;1787086;78;21394;-49
2021/01/07 07:44:58;;;;;;;38.85;18.45;;;;;;;1.60;98.32;100238.34;1820813;77;21136;-49
2021/01/07 07:47:26;;;;;;;38.75;18.62;;;;;;;1.62;98.33;100234.76;1842061;77;21351;-49
2021/01/07 07:49:58;;;;;;;35.75;18.48;;;;;;;1.65;98.35;100235.53;1834788;77;21439;-49
2021/01/07 07:52:25;;;;;;;41.28;17.95;;;;;;;1.64;98.31;100227.31;1818496;78;21006;-49
2021/01/07 07:55:06;;;;;;;33.25;16.48;;;;;;;1.66;98.32;100228.09;1827302;77;21918;-49
2021/01/07 07:57:47;;;;;;;31.48;15.70;;;;;;;1.66;98.29;100222.88;1819656;78;27345;-48
2021/01/07 08:00:16;;;;;;;30.02;13.38;;;;;;;1.69;98.34;100216.20;1817182;78;22851;-49
2021/01/07 08:02:45;;;;;;;29.82;15.03;;;;;;;1.71;98.33;100215.67;1817281;77;21128;-49
2021/01/07 08:05:26;;;;;;;30.77;15.95;;;;;;;1.73;98.32;100202.09;1820722;77;21739;-49
2021/01/07 08:07:54;;;;;;;28.47;14.78;;;;;;;1.74;98.34;100201.17;1815865;77;21117;-49
2021/01/07 08:10:23;;;;;;;26.30;15.18;;;;;;;1.75;98.29;100198.47;1832828;77;21129;-49
2021/01/07 08:12:53;;;;;;;23.60;14.30;;;;;;;1.79;98.30;100197.02;1791662;78;21195;-49
2021/01/07 08:15:31;;;;;;;25.25;14.38;;;;;;;1.81;98.25;100205.62;1805321;78;22121;-49
2021/01/07 08:18:25;;;;;;;25.60;14.28;;;;;;;1.82;98.21;100194.26;1790150;78;21027;-49
2021/01/07 08:20:54;;;;;;;25.15;14.33;;;;;;;1.85;98.18;100194.11;1820994;77;21132;-50
2021/01/07 08:23:24;;;;;;;24.77;14.33;;;;;;;1.84;98.15;100189.36;1804386;77;21134;-49
2021/01/07 08:25:52;;;;;;;26.35;13.50;;;;;;;1.87;98.10;100181.83;1817459;77;21648;-49
2021/01/07 08:28:38;;;;;;;28.62;15.15;;;;;;;1.88;98.02;100200.04;1803941;78;21963;-48
2021/01/07 08:31:13;;;;;;;27.80;15.38;;;;;;;1.87;97.90;100179.22;1802159;78;21013;-50
2021/01/07 08:33:41;;;;;;;22.60;13.08;;;;;;;1.86;97.91;100170.56;1795637;78;21630;-49
2021/01/07 08:36:11;;;;;;;25.55;14.00;;;;;;;1.85;97.87;100177.14;1795774;78;21140;-49
2021/01/07 08:38:39;;;;;;;25.85;13.75;;;;;;;1.83;97.90;100164.62;1795729;78;22597;-48
2021/01/07 08:41:16;;;;;;;23.18;12.43;;;;;;;1.83;97.94;100167.23;1800108;78;21164;-48
2021/01/07 08:43:47;;;;;;;24.82;14.35;;;;;;;1.84;98.00;100159.80;1797316;78;21139;-49
2021/01/07 08:46:23;;;;;;;21.27;13.00;;;;;;;1.83;98.01;100157.66;1800408;78;21129;-49
2021/01/07 08:49:12;;;;;;;22.82;11.15;;;;;;;1.86;98.07;100150.13;1803425;78;22126;-49
2021/01/07 08:51:48;;;;;;;26.82;13.48;;;;;;;1.88;98.12;100151.75;1815015;78;21863;-49
2021/01/07 08:54:20;;;;;;;30.23;12.85;;;;;;;1.88;98.07;100143.06;1815232;78;21010;-49
2021/01/07 08:56:49;;;;;;;19.48;10.13;;;;;;;1.87;98.09;100149.20;1803412;78;22253;-49
2021/01/07 08:59:33;;;;;;;29.55;13.88;;;;;;;1.86;98.12;100141.84;1801306;78;21110;-49
2021/01/07 09:02:15;;;;;;;28.02;15.00;;;;;;;1.83;98.21;100121.56;1790432;78;21120;-49
2021/01/07 09:04:43;;;;;;;25.50;12.47;;;;;;;1.83;98.26;100120.26;1826495;77;21357;-49
2021/01/07 09:07:19;;;;;;;25.32;12.55;;;;;;;1.83;98.37;100126.34;1796902;78;21658;-48
2021/01/07 09:09:54;;;;;;;25.85;12.40;;;;;;;1.81;98.43;100116.44;1796741;78;21986;-49
2021/01/07 09:12:30;;;;;;;29.30;14.70;;;;;;;1.81;98.52;100109.91;1804278;78;21130;-49
2021/01/07 09:15:14;;;;;;;29.87;13.00;;;;;;;1.81;98.65;100108.61;1794066;78;21160;-49
2021/01/07 09:17:44;;;;;;;31.48;13.62;;;;;;;1.82;98.75;100109.44;1791487;78;21392;-49
2021/01/07 09:20:21;;;;;;;28.95;13.85;;;;;;;1.83;98.84;100104.16;1795939;78;21967;-49
2021/01/07 09:22:49;;;;;;;29.87;14.68;;;;;;;1.84;98.91;100099.31;1787179;78;21121;-49
2021/01/07 09:25:18;;;;;;;28.02;13.88;;;;;;;1.87;98.97;100086.11;1820660;77;21113;-49
2021/01/07 09:27:52;;;;;;;34.67;15.70;;;;;;;1.89;99.05;100082.97;1817604;77;21113;-49
2021/01/07 09:30:20;;;;;;;28.25;13.05;;;;;;;1.89;99.05;100076.44;1789650;78;21377;-49
2021/01/07 09:32:48;;;;;;;27.82;14.03;;;;;;;1.93;99.12;100065.84;1816138;77;21124;-49
2021/01/07 09:35:15;;;;;;;26.00;11.88;;;;;;;1.94;99.15;100061.83;1822175;77;21141;-49
2021/01/07 09:37:45;;;;;;;25.12;11.88;;;;;;;1.96;99.22;100059.16;1798692;78;21136;-49
2021/01/07 09:40:13;;;;;;;29.07;13.35;;;;;;;1.94;99.26;100050.08;1791685;78;21141;-49
2021/01/07 09:42:42;;;;;;;23.92;12.73;;;;;;;1.95;99.35;100042.63;1815470;78;21261;-49
2021/01/07 09:45:11;;;;;;;29.42;13.50;;;;;;;1.98;99.45;100041.65;1804525;78;21177;-49
2021/01/07 09:47:39;;;;;;;32.15;13.18;;;;;;;1.99;99.49;100039.42;1787622;78;21617;-50
2021/01/07 09:50:10;;;;;;;29.10;13.85;;;;;;;1.99;99.60;100028.98;1787074;78;21141;-50
2021/01/07 09:52:38;;;;;;;23.90;12.23;;;;;;;1.99;99.65;100027.67;1792076;78;21142;-49
2021/01/07 09:55:07;;;;;;;23.50;11.50;;;;;;;2.01;99.73;100018.82;1788234;78;21400;-48
2021/01/07 09:57:36;;;;;;;28.67;14.13;;;;;;;2.07;99.81;100015.06;1787112;78;21014;-48
2021/01/07 10:00:06;;;;;;;24.87;12.33;;;;;;;2.10;99.84;100010.13;1817010;77;21161;-49
2021/01/07 10:02:34;;;;;;;24.82;13.20;;;;;;;2.15;99.88;100014.16;1814728;78;21137;-49
2021/01/07 10:05:03;;;;;;;27.67;13.43;;;;;;;2.18;99.91;99995.72;1787063;78;21118;-49
2021/01/07 10:07:30;;;;;;;28.07;12.90;;;;;;;2.20;99.92;99992.56;1787250;78;23092;-49
2021/01/07 10:09:58;;;;;;;22.48;12.18;;;;;;;2.23;99.91;99985.48;1817388;77;21168;-49
2021/01/07 10:12:26;;;;;;;26.90;13.03;;;;;;;2.23;99.90;99981.13;1817702;77;21588;-50
2021/01/07 10:14:54;;;;;;;28.17;13.00;;;;;;;2.27;99.94;99971.34;1822346;77;21130;-49
2021/01/07 10:17:21;;;;;;;23.95;12.00;;;;;;;2.28;99.94;99961.27;1816133;78;21203;-49
2021/01/07 10:19:49;;;;;;;22.93;11.08;;;;;;;2.31;99.93;99954.58;1820800;77;21230;-50
2021/01/07 10:22:17;;;;;;;23.95;12.28;;;;;;;2.35;99.96;99965.23;1820532;77;21614;-50
2021/01/07 10:24:46;;;;;;;25.00;12.15;;;;;;;2.40;100.00;99959.30;1816854;77;20999;-47
2021/01/07 10:27:16;;;;;;;26.40;13.58;;;;;;;2.44;99.99;99957.38;1786396;78;21121;-48
2021/01/07 10:29:45;;;;;;;27.95;13.05;;;;;;;2.46;99.91;99949.81;1821768;77;22152;-49
2021/01/07 10:32:16;;;;;;;24.00;11.18;;;;;;;2.47;99.87;99933.69;1816727;77;21405;-49
2021/01/07 10:34:47;;;;;;;24.12;11.90;;;;;;;2.53;99.87;99936.41;1819998;77;28107;-49
2021/01/07 10:37:19;;;;;;;19.07;10.30;;;;;;;2.56;99.87;99937.09;1821939;77;22358;-49
2021/01/07 10:39:49;;;;;;;23.40;11.95;;;;;;;2.58;99.79;99925.23;1812310;77;21140;-48
2021/01/07 10:42:17;;;;;;;22.95;11.53;;;;;;;2.60;99.74;99919.46;1798081;78;21120;-50
2021/01/07 10:44:46;;;;;;;19.70;10.15;;;;;;;2.64;99.73;99911.38;1809750;78;21596;-49
2021/01/07 10:47:15;;;;;;;22.07;10.98;;;;;;;2.66;99.68;99908.66;1804099;78;21150;-49
2021/01/07 10:49:45;;;;;;;17.92;10.05;;;;;;;2.69;99.63;99905.02;1808358;78;21076;-50
2021/01/07 10:52:47;;;;;;;19.90;9.90;;;;;;;2.70;99.56;99901.47;1787733;78;21117;-49
2021/01/07 10:55:22;;;;;;;18.07;9.78;;;;;;;2.69;99.51;99895.42;1788810;78;21120;-49
2021/01/07 10:58:27;;;;;;;17.42;9.15;;;;;;;2.72;99.49;99886.55;1764810;78;22211;-48
2021/01/07 11:01:21;;;;;;;16.73;8.78;;;;;;;2.74;99.47;99879.45;1828174;77;21188;-49
2021/01/07 11:04:13;;;;;;;15.85;7.50;;;;;;;2.76;99.37;99874.53;1798306;78;21125;-49
2021/01/07 11:07:10;;;;;;;13.95;8.08;;;;;;;2.77;99.27;99866.21;1823709;77;21141;-48
2021/01/07 11:09:47;;;;;;;12.53;7.10;;;;;;;2.85;99.17;99860.07;1841858;76;22763;-48
2021/01/07 11:12:27;;;;;;;13.08;6.95;;;;;;;2.83;99.10;99853.27;1825877;77;20947;-49
2021/01/07 11:15:04;;;;;;;11.12;6.30;;;;;;;2.85;98.98;99854.02;1818617;77;21171;-49
2021/01/07 11:17:34;;;;;;;10.20;6.20;;;;;;;2.89;98.98;99839.84;1819666;77;20977;-50
2021/01/07 11:20:05;;;;;;;10.15;5.87;;;;;;;2.92;98.83;99838.34;1797733;77;21117;-49
2021/01/07 11:22:34;;;;;;;11.10;5.65;;;;;;;2.93;98.59;99828.27;1823844;77;20956;-48
2021/01/07 11:25:05;;;;;;;9.48;5.03;;;;;;;2.94;98.49;99816.39;1758271;80;20985;-49
2021/01/07 11:27:34;;;;;;;12.30;6.10;;;;;;;2.96;98.41;99812.39;1782741;79;21371;-49
2021/01/07 11:30:04;;;;;;;10.93;5.58;;;;;;;2.97;98.25;99811.47;1726537;81;21007;-49
2021/01/07 11:32:37;;;;;;;10.83;5.43;;;;;;;2.98;98.20;99807.06;1728478;81;20987;-48